createdAt,value
2022-11-24T00:02:12.135Z,30.77
2022-11-24T00:04:40.115Z,31.73
2022-11-24T00:07:08.006Z,32.85
2022-11-24T00:09:37.380Z,31.95
2022-11-24T00:12:05.799Z,32.70
2022-11-24T00:14:33.885Z,32.08
2022-11-24T00:17:02.026Z,35.10
2022-11-24T00:19:29.971Z,31.85
2022-11-24T00:21:57.958Z,32.58
2022-11-24T00:24:25.854Z,32.75
2022-11-24T00:26:55.042Z,33.30
2022-11-24T00:29:23.095Z,32.58
2022-11-24T00:31:50.916Z,31.70
2022-11-24T00:34:18.890Z,32.53
2022-11-24T00:36:46.876Z,30.58
2022-11-24T00:39:17.298Z,31.35
2022-11-24T00:41:46.226Z,32.40
2022-11-24T00:44:15.631Z,30.88
2022-11-24T00:46:43.879Z,30.85
2022-11-24T00:49:11.921Z,29.75
2022-11-24T00:51:39.862Z,31.55
2022-11-24T00:54:07.912Z,31.73
2022-11-24T00:56:35.950Z,32.75
2022-11-24T00:59:04.272Z,32.17
2022-11-24T01:01:33.633Z,32.75
2022-11-24T01:04:02.606Z,34.72
2022-11-24T01:06:32.374Z,33.05
2022-11-24T01:09:00.656Z,32.47
2022-11-24T01:11:50.946Z,32.67
2022-11-24T01:14:19.438Z,32.05
2022-11-24T01:16:49.008Z,32.38
2022-11-24T01:19:17.019Z,32.33
2022-11-24T01:21:44.929Z,30.33
2022-11-24T01:24:13.326Z,31.30
2022-11-24T01:26:41.407Z,31.70
2022-11-24T01:29:11.879Z,28.85
2022-11-24T01:31:40.133Z,31.38
2022-11-24T01:34:09.730Z,30.27
2022-11-24T01:36:37.912Z,30.30
2022-11-24T01:39:05.963Z,30.27
2022-11-24T01:41:35.965Z,31.80
2022-11-24T01:44:22.476Z,33.47
2022-11-24T01:46:56.426Z,31.52
2022-11-24T01:49:28.900Z,32.10
2022-11-24T01:52:00.671Z,32.58
2022-11-24T01:54:32.623Z,28.08
2022-11-24T01:57:13.864Z,31.15
2022-11-24T01:59:42.552Z,31.98
2022-11-24T02:02:10.907Z,29.63
2022-11-24T02:04:41.404Z,30.25
2022-11-24T02:07:10.008Z,31.13
2022-11-24T02:09:44.482Z,30.70
2022-11-24T02:12:12.847Z,30.30
2022-11-24T02:14:43.139Z,31.25
2022-11-24T02:17:11.104Z,28.10
2022-11-24T02:19:49.816Z,28.45
2022-11-24T02:22:23.215Z,29.63
2022-11-24T02:24:56.422Z,29.77
2022-11-24T02:29:53.854Z,27.92
2022-11-24T02:32:21.758Z,26.58
2022-11-24T02:34:49.726Z,27.50
2022-11-24T02:37:17.696Z,27.40
2022-11-24T02:39:45.559Z,28.35
2022-11-24T02:42:14.721Z,30.52
2022-11-24T02:44:48.862Z,27.80
2022-11-24T02:47:16.938Z,28.35
2022-11-24T02:49:44.810Z,28.63
2022-11-24T02:52:12.786Z,29.38
2022-11-24T02:54:40.778Z,28.75
2022-11-24T02:57:09.079Z,29.70
2022-11-24T02:59:36.972Z,30.23
2022-11-24T03:02:06.366Z,30.98
2022-11-24T03:04:34.443Z,26.95
2022-11-24T03:07:02.742Z,30.42
2022-11-24T03:09:31.881Z,29.63
2022-11-24T03:11:59.831Z,29.65
2022-11-24T03:14:27.819Z,29.67
2022-11-24T03:16:55.860Z,29.00
2022-11-24T03:19:25.201Z,27.35
2022-11-24T03:21:53.123Z,26.98
2022-11-24T03:24:21.056Z,29.92
2022-11-24T03:26:49.067Z,30.30
2022-11-24T03:29:16.963Z,30.08
2022-11-24T03:31:44.947Z,28.30
2022-11-24T03:34:12.884Z,27.52
2022-11-24T03:36:42.212Z,27.75
2022-11-24T03:39:10.243Z,30.65
2022-11-24T03:41:38.092Z,28.88
2022-11-24T03:44:06.330Z,27.85
2022-11-24T03:46:34.455Z,27.55
2022-11-24T03:49:02.695Z,28.38
2022-11-24T03:51:30.619Z,27.08
2022-11-24T03:54:00.006Z,27.35
2022-11-24T03:56:27.939Z,27.77
2022-11-24T03:58:56.101Z,27.25
2022-11-24T04:01:24.073Z,27.75
2022-11-24T04:03:52.011Z,27.60
2022-11-24T04:06:20.066Z,28.23
2022-11-24T04:08:48.039Z,26.40
2022-11-24T04:11:31.251Z,26.95
2022-11-24T04:13:59.206Z,25.85
2022-11-24T04:16:27.296Z,26.25
2022-11-24T04:18:55.265Z,26.08
2022-11-24T04:21:23.163Z,28.48
2022-11-24T04:23:51.313Z,26.35
2022-11-24T04:26:20.690Z,30.02
2022-11-24T04:28:48.654Z,26.73
2022-11-24T04:31:16.902Z,27.15
2022-11-24T04:33:45.024Z,27.95
2022-11-24T04:36:12.928Z,25.35
2022-11-24T04:39:19.815Z,27.80
2022-11-24T04:41:30.163Z,26.08
2022-11-24T04:43:58.052Z,26.60
2022-11-24T04:46:26.133Z,25.17
2022-11-24T04:48:54.074Z,26.58
2022-11-24T04:51:22.090Z,25.75
2022-11-24T04:53:50.373Z,25.58
2022-11-24T04:56:18.339Z,25.08
2022-11-24T04:58:49.439Z,24.75
2022-11-24T05:01:17.419Z,25.27
2022-11-24T05:03:45.471Z,26.95
2022-11-24T05:06:13.453Z,25.58
2022-11-24T05:08:41.460Z,27.90
2022-11-24T05:11:09.399Z,25.35
2022-11-24T05:13:37.287Z,26.90
2022-11-24T05:16:06.849Z,26.63
2022-11-24T05:18:34.877Z,24.80
2022-11-24T05:21:03.020Z,25.02
2022-11-24T05:23:31.183Z,22.60
2022-11-24T05:26:01.094Z,23.05
2022-11-24T05:28:30.139Z,21.95
2022-11-24T05:31:00.611Z,21.65
2022-11-24T05:33:33.289Z,22.52
2022-11-24T05:36:03.159Z,20.65
2022-11-24T05:38:31.276Z,20.48
2022-11-24T05:41:01.778Z,21.13
2022-11-24T05:43:30.376Z,21.58
2022-11-24T05:46:00.312Z,21.23
2022-11-24T05:48:29.823Z,19.40
2022-11-24T05:50:59.627Z,19.92
2022-11-24T05:53:27.642Z,20.75
2022-11-24T05:55:55.624Z,18.88
2022-11-24T05:58:23.439Z,18.73
2022-11-24T06:00:51.372Z,22.67
2022-11-24T06:03:19.248Z,20.00
2022-11-24T06:05:48.829Z,20.98
2022-11-24T06:08:16.965Z,21.17
2022-11-24T06:10:44.823Z,19.98
2022-11-24T06:13:12.864Z,21.30
2022-11-24T06:15:41.454Z,22.17
2022-11-24T06:18:09.323Z,23.08
2022-11-24T06:20:37.220Z,22.15
2022-11-24T06:23:06.453Z,22.38
2022-11-24T06:25:34.792Z,21.08
2022-11-24T06:28:04.848Z,22.20
2022-11-24T06:30:32.791Z,23.13
2022-11-24T06:33:00.992Z,21.67
2022-11-24T06:35:28.940Z,22.60
2022-11-24T06:37:56.811Z,21.60
2022-11-24T06:40:26.147Z,22.15
2022-11-24T06:42:54.331Z,20.75
2022-11-24T06:45:23.425Z,20.75
2022-11-24T06:47:54.335Z,20.63
2022-11-24T06:50:22.444Z,21.50
2022-11-24T06:52:50.476Z,21.10
2022-11-24T06:55:18.462Z,20.83
2022-11-24T06:57:47.721Z,22.17
2022-11-24T07:00:16.431Z,19.60
2022-11-24T07:02:46.090Z,20.40
2022-11-24T07:05:14.378Z,20.35
2022-11-24T07:07:42.388Z,20.73
2022-11-24T07:10:10.717Z,19.40
2022-11-24T07:12:38.612Z,19.80
2022-11-24T07:15:09.526Z,19.60
2022-11-24T07:17:38.041Z,20.05
2022-11-24T07:20:07.558Z,20.33
2022-11-24T07:22:36.122Z,20.13
2022-11-24T07:25:07.291Z,20.02
2022-11-24T07:27:35.240Z,18.88
2022-11-24T07:30:03.433Z,18.90
2022-11-24T07:32:32.987Z,20.05
2022-11-24T07:35:01.009Z,19.15
2022-11-24T07:37:31.651Z,20.67
2022-11-24T07:39:59.870Z,20.02
2022-11-24T07:42:28.591Z,19.90
2022-11-24T07:44:56.573Z,20.02
2022-11-24T07:47:24.505Z,19.80
2022-11-24T07:49:53.914Z,19.52
2022-11-24T07:52:21.795Z,20.23
2022-11-24T07:54:49.772Z,19.80
2022-11-24T07:57:17.653Z,19.75
2022-11-24T07:59:45.698Z,20.40
2022-11-24T08:02:14.387Z,17.00
2022-11-24T08:04:42.465Z,18.65
2022-11-24T08:07:11.812Z,19.35
2022-11-24T08:09:39.884Z,18.75
2022-11-24T08:12:08.244Z,19.27
2022-11-24T08:14:36.437Z,19.23
2022-11-24T08:17:04.580Z,18.75
2022-11-24T08:19:32.748Z,19.65
2022-11-24T08:22:00.714Z,19.88
2022-11-24T08:24:31.446Z,19.73
2022-11-24T08:26:59.606Z,20.42
2022-11-24T08:29:29.640Z,19.30
2022-11-24T08:31:58.386Z,19.23
2022-11-24T08:34:27.041Z,20.48
2022-11-24T08:36:55.008Z,19.83
2022-11-24T08:39:23.062Z,19.55
2022-11-24T08:41:52.378Z,18.50
2022-11-24T08:44:20.312Z,20.85
2022-11-24T08:46:48.317Z,21.00
2022-11-24T08:49:16.185Z,20.73
2022-11-24T08:51:44.336Z,19.90
2022-11-24T08:54:13.454Z,20.25
2022-11-24T08:56:41.379Z,20.67
2022-11-24T08:59:13.248Z,21.50
2022-11-24T09:01:41.735Z,20.65
2022-11-24T09:04:09.790Z,20.95
2022-11-24T09:06:37.736Z,19.67
2022-11-24T09:09:05.567Z,21.23
2022-11-24T09:11:35.020Z,21.30
2022-11-24T09:14:03.105Z,20.35
2022-11-24T09:16:32.383Z,19.30
2022-11-24T09:19:02.039Z,19.50
2022-11-24T09:21:31.442Z,19.65
2022-11-24T09:23:59.282Z,19.27
2022-11-24T09:26:28.639Z,18.83
2022-11-24T09:28:58.082Z,20.50
2022-11-24T09:31:28.605Z,18.90
2022-11-24T09:33:58.212Z,19.45
2022-11-24T09:36:26.681Z,20.35
2022-11-24T09:38:54.729Z,20.58
2022-11-24T09:41:40.409Z,21.00
2022-11-24T09:44:28.221Z,20.17
2022-11-24T09:47:04.142Z,20.25
2022-11-24T09:49:39.672Z,19.85
2022-11-24T09:52:14.104Z,18.65
2022-11-24T09:54:50.203Z,19.33
2022-11-24T09:57:20.903Z,18.65
2022-11-24T09:59:48.806Z,19.90
2022-11-24T10:02:16.701Z,19.27
2022-11-24T10:04:48.101Z,18.40
2022-11-24T10:07:24.318Z,19.77
2022-11-24T10:10:04.570Z,19.60
2022-11-24T10:12:46.879Z,19.90
2022-11-24T10:15:25.554Z,20.60
2022-11-24T10:18:14.925Z,20.17
2022-11-24T10:20:56.097Z,20.15
2022-11-24T10:23:55.661Z,20.52
2022-11-24T10:26:31.927Z,20.45
2022-11-24T10:29:00.010Z,19.23
2022-11-24T10:31:35.279Z,18.85
2022-11-24T10:34:14.782Z,21.02
2022-11-24T10:36:50.544Z,20.17
2022-11-24T10:39:24.925Z,20.23
2022-11-24T10:41:55.975Z,19.80
2022-11-24T10:44:24.072Z,20.45
2022-11-24T10:46:52.429Z,20.05
2022-11-24T10:49:24.822Z,20.38
2022-11-24T10:52:05.920Z,19.07
2022-11-24T10:54:35.903Z,20.50
2022-11-24T10:57:04.095Z,19.30
2022-11-24T10:59:38.668Z,21.00
2022-11-24T11:02:32.369Z,19.02
2022-11-24T11:05:20.555Z,21.17
2022-11-24T11:07:50.003Z,19.42
2022-11-24T11:10:21.904Z,20.40
2022-11-24T11:12:51.056Z,19.60
2022-11-24T11:15:27.397Z,19.25
2022-11-24T11:17:59.509Z,18.55
2022-11-24T11:20:32.910Z,20.13
2022-11-24T11:23:15.039Z,21.38
2022-11-24T11:25:43.696Z,19.17
2022-11-24T11:28:27.825Z,20.17
2022-11-24T11:31:16.427Z,19.92
2022-11-24T11:34:06.174Z,19.35
2022-11-24T11:36:40.614Z,20.20
2022-11-24T11:39:21.536Z,21.43
2022-11-24T11:41:53.154Z,19.92
2022-11-24T11:44:33.664Z,19.65
2022-11-24T11:47:10.271Z,20.58
2022-11-24T11:49:40.301Z,18.67
2022-11-24T11:52:35.713Z,19.90
2022-11-24T11:55:25.915Z,20.27
2022-11-24T11:58:07.944Z,19.42
2022-11-24T12:00:40.528Z,19.08
2022-11-24T12:03:29.591Z,18.85
2022-11-24T12:06:08.405Z,18.95
2022-11-24T12:09:17.804Z,20.05
2022-11-24T12:11:40.391Z,19.25
2022-11-24T12:14:18.481Z,20.10
2022-11-24T12:16:54.431Z,20.02
2022-11-24T12:19:41.051Z,19.48
2022-11-24T12:22:20.270Z,19.85
2022-11-24T12:24:56.802Z,19.15
2022-11-24T12:27:39.057Z,19.05
2022-11-24T12:30:12.505Z,19.58
2022-11-24T12:33:05.730Z,18.38
2022-11-24T12:35:38.321Z,19.02
2022-11-24T12:38:26.075Z,19.55
2022-11-24T12:41:39.651Z,17.90
2022-11-24T12:44:01.785Z,17.73
2022-11-24T12:46:39.766Z,17.55
2022-11-24T12:49:18.836Z,16.30
2022-11-24T12:51:53.578Z,16.88
2022-11-24T12:54:22.871Z,17.75
2022-11-24T12:56:57.058Z,18.05
2022-11-24T12:59:35.767Z,16.80
2022-11-24T13:02:17.935Z,17.63
2022-11-24T13:04:52.814Z,17.08
2022-11-24T13:07:28.214Z,17.13
2022-11-24T13:13:19.604Z,18.80
2022-11-24T13:19:10.638Z,18.50
2022-11-24T13:22:01.091Z,17.77
2022-11-24T13:24:31.859Z,19.02
2022-11-24T13:27:37.119Z,17.80
2022-11-24T13:30:52.437Z,17.60
2022-11-24T13:33:39.881Z,17.48
2022-11-24T13:36:32.777Z,17.75
2022-11-24T13:39:02.533Z,17.83
2022-11-24T13:42:10.397Z,17.63
2022-11-24T13:44:59.535Z,19.63
2022-11-24T13:47:36.257Z,18.98
2022-11-24T13:50:13.916Z,18.70
2022-11-24T13:52:46.358Z,19.55
2022-11-24T13:55:28.018Z,14.10
2022-11-24T13:58:00.170Z,18.08
2022-11-24T14:00:30.761Z,17.90
2022-11-24T14:03:02.100Z,17.70
2022-11-24T14:05:37.862Z,18.75
2022-11-24T14:08:08.227Z,17.63
2022-11-24T14:10:38.351Z,19.00
2022-11-24T14:13:26.489Z,18.05
2022-11-24T14:16:05.168Z,17.98
2022-11-24T14:18:34.111Z,18.05
2022-11-24T14:21:23.338Z,19.58
2022-11-24T14:23:53.737Z,18.45
2022-11-24T14:26:23.584Z,18.20
2022-11-24T14:28:52.434Z,18.70
2022-11-24T14:31:24.002Z,18.08
2022-11-24T14:34:07.797Z,19.50
2022-11-24T14:36:37.095Z,18.48
2022-11-24T14:39:06.044Z,17.20
2022-11-24T14:41:35.028Z,17.35
2022-11-24T14:44:18.000Z,17.88
2022-11-24T14:46:46.129Z,18.15
2022-11-24T14:49:19.896Z,17.75
2022-11-24T14:51:55.860Z,18.30
2022-11-24T14:54:24.658Z,18.30
2022-11-24T14:57:01.959Z,17.23
2022-11-24T14:59:31.436Z,19.58
2022-11-24T15:02:00.632Z,19.08
2022-11-24T15:05:02.304Z,17.58
2022-11-24T15:07:26.647Z,18.20
2022-11-24T15:09:58.048Z,18.33
2022-11-24T15:12:30.583Z,17.17
2022-11-24T15:15:02.336Z,17.17
2022-11-24T15:17:31.050Z,17.70
2022-11-24T15:20:03.114Z,18.33
2022-11-24T15:22:41.316Z,18.08
2022-11-24T15:25:36.451Z,17.65
2022-11-24T15:28:04.565Z,18.63
2022-11-24T15:30:36.012Z,17.60
2022-11-24T15:33:04.513Z,18.95
2022-11-24T15:35:33.642Z,18.17
2022-11-24T15:38:02.923Z,18.42
2022-11-24T15:40:31.636Z,19.50
2022-11-24T15:43:03.461Z,18.85
2022-11-24T15:45:35.373Z,18.50
2022-11-24T15:48:03.289Z,18.73
2022-11-24T15:50:31.315Z,18.00
2022-11-24T15:52:59.374Z,18.55
2022-11-24T15:55:28.688Z,18.80
2022-11-24T15:57:56.533Z,17.77
2022-11-24T16:00:25.005Z,17.70
2022-11-24T16:02:52.919Z,18.30
2022-11-24T16:05:20.760Z,19.60
2022-11-24T16:07:48.706Z,19.13
2022-11-24T16:10:25.616Z,19.17
2022-11-24T16:12:54.942Z,20.58
2022-11-24T16:15:22.862Z,21.17
2022-11-24T16:17:50.867Z,20.40
2022-11-24T16:20:18.862Z,19.65
2022-11-24T16:22:47.279Z,20.17
2022-11-24T16:25:15.387Z,19.60
2022-11-24T16:27:43.380Z,21.73
2022-11-24T16:30:14.377Z,21.35
2022-11-24T16:32:42.583Z,20.58
2022-11-24T16:35:10.728Z,20.98
2022-11-24T16:37:38.758Z,20.98
2022-11-24T16:40:07.862Z,20.13
2022-11-24T16:42:35.814Z,20.42
2022-11-24T16:45:03.782Z,20.88
2022-11-24T16:47:33.036Z,20.85
2022-11-24T16:50:00.941Z,21.38
2022-11-24T16:52:28.844Z,21.98
2022-11-24T16:54:56.677Z,22.17
2022-11-24T16:57:24.545Z,22.08
2022-11-24T16:59:52.391Z,21.63
2022-11-24T17:02:20.477Z,21.10
2022-11-24T17:04:52.269Z,21.25
2022-11-24T17:07:20.972Z,21.90
2022-11-24T17:09:49.465Z,21.65
2022-11-24T17:12:17.403Z,20.73
2022-11-24T17:15:03.110Z,21.65
2022-11-24T17:17:33.311Z,21.88
2022-11-24T17:20:02.561Z,22.90
2022-11-24T17:22:30.694Z,20.75
2022-11-24T17:24:58.548Z,23.20
2022-11-24T17:27:26.551Z,21.95
2022-11-24T17:29:54.573Z,21.02
2022-11-24T17:32:22.451Z,22.63
2022-11-24T17:34:50.345Z,20.52
2022-11-24T17:37:19.585Z,21.90
2022-11-24T17:40:12.557Z,21.55
2022-11-24T17:42:36.893Z,22.90
2022-11-24T17:45:05.480Z,21.58
2022-11-24T17:47:33.346Z,23.17
2022-11-24T17:50:01.205Z,22.85
2022-11-24T17:52:31.825Z,23.05
2022-11-24T17:54:59.997Z,22.67
2022-11-24T17:57:27.996Z,21.38
2022-11-24T17:59:55.903Z,21.75
2022-11-24T18:02:23.815Z,23.02
2022-11-24T18:04:51.770Z,22.67
2022-11-24T18:07:19.682Z,21.40
2022-11-24T18:09:49.027Z,21.67
2022-11-24T18:12:16.887Z,21.45
2022-11-24T18:14:44.760Z,21.65
2022-11-24T18:17:12.643Z,21.80
2022-11-24T18:19:40.537Z,20.80
2022-11-24T18:22:08.352Z,19.83
2022-11-24T18:24:36.498Z,21.90
2022-11-24T18:27:06.138Z,21.70
2022-11-24T18:29:34.019Z,23.02
2022-11-24T18:32:02.270Z,22.27
2022-11-24T18:34:30.335Z,21.55
2022-11-24T18:36:58.203Z,21.45
2022-11-24T18:39:26.556Z,22.17
2022-11-24T18:41:54.434Z,20.73
2022-11-24T18:44:23.754Z,21.88
2022-11-24T18:46:51.682Z,20.75
2022-11-24T18:49:19.491Z,21.02
2022-11-24T18:51:47.274Z,20.55
2022-11-24T18:54:15.107Z,21.23
2022-11-24T18:56:42.968Z,21.55
2022-11-24T18:59:10.802Z,20.70
2022-11-24T19:01:40.073Z,19.88
2022-11-24T19:04:07.992Z,20.58
2022-11-24T19:06:38.665Z,20.27
2022-11-24T19:09:08.225Z,23.13
2022-11-24T19:11:38.931Z,23.77
2022-11-24T19:14:09.852Z,21.23
2022-11-24T19:16:38.056Z,22.30
2022-11-24T19:19:07.803Z,23.30
2022-11-24T19:21:38.186Z,21.92
2022-11-24T19:24:07.693Z,22.30
2022-11-24T19:26:35.855Z,20.75
2022-11-24T19:29:04.574Z,22.02
2022-11-24T19:31:33.085Z,22.55
2022-11-24T19:34:02.888Z,20.65
2022-11-24T19:36:32.644Z,20.70
2022-11-24T19:39:00.922Z,21.65
2022-11-24T19:41:31.112Z,21.35
2022-11-24T19:44:00.020Z,20.67
2022-11-24T19:46:29.793Z,20.02
2022-11-24T19:49:00.588Z,20.83
2022-11-24T19:51:31.288Z,21.83
2022-11-24T19:54:01.407Z,19.98
2022-11-24T19:56:31.456Z,19.10
2022-11-24T19:58:59.471Z,19.35
2022-11-24T20:01:29.650Z,20.20
2022-11-24T20:03:59.303Z,19.88
2022-11-24T20:06:28.185Z,19.00
2022-11-24T20:08:57.932Z,19.00
2022-11-24T20:11:29.577Z,19.70
2022-11-24T20:13:58.321Z,18.95
2022-11-24T20:16:28.269Z,18.33
2022-11-24T20:18:57.709Z,20.45
2022-11-24T20:21:28.585Z,18.13
2022-11-24T20:23:58.680Z,19.02
2022-11-24T20:26:29.708Z,19.63
2022-11-24T20:28:59.445Z,19.40
2022-11-24T20:31:29.272Z,20.15
2022-11-24T20:33:57.591Z,20.10
2022-11-24T20:36:27.927Z,19.00
2022-11-24T20:38:56.181Z,18.13
2022-11-24T20:41:26.468Z,19.08
2022-11-24T20:43:57.359Z,19.25
2022-11-24T20:46:27.102Z,18.95
2022-11-24T20:48:55.587Z,20.25
2022-11-24T20:51:25.577Z,20.52
2022-11-24T20:53:54.887Z,20.90
2022-11-24T20:56:24.383Z,18.73
2022-11-24T20:58:52.891Z,19.27
2022-11-24T21:01:24.595Z,20.13
2022-11-24T21:03:55.408Z,19.85
2022-11-24T21:06:23.810Z,20.95
2022-11-24T21:08:52.346Z,19.92
2022-11-24T21:11:21.154Z,20.48
2022-11-24T21:13:50.166Z,20.48
2022-11-24T21:16:19.908Z,21.88
2022-11-24T21:18:51.166Z,20.92
2022-11-24T21:21:20.408Z,21.13
2022-11-24T21:23:48.954Z,21.90
2022-11-24T21:26:18.302Z,20.40
2022-11-24T21:28:48.245Z,21.00
2022-11-24T21:31:18.292Z,20.67
2022-11-24T21:33:47.595Z,22.23
2022-11-24T21:36:18.866Z,22.40
2022-11-24T21:38:51.619Z,22.20
2022-11-24T21:41:20.124Z,20.67
2022-11-24T21:43:48.386Z,21.35
2022-11-24T21:46:16.499Z,21.08
2022-11-24T21:48:44.544Z,20.35
2022-11-24T21:51:15.527Z,19.70
2022-11-24T21:53:46.526Z,19.33
2022-11-24T21:56:19.655Z,20.10
2022-11-24T21:58:49.017Z,20.50
2022-11-24T22:01:19.555Z,18.60
2022-11-24T22:03:47.757Z,20.75
2022-11-24T22:06:17.757Z,18.55
2022-11-24T22:08:47.734Z,20.80
2022-11-24T22:11:17.546Z,18.67
2022-11-24T22:13:45.971Z,17.10
2022-11-24T22:16:15.148Z,15.40
2022-11-24T22:18:44.342Z,16.80
2022-11-24T22:21:13.841Z,15.88
2022-11-24T22:23:41.680Z,17.45
2022-11-24T22:26:14.253Z,16.17
2022-11-24T22:28:42.931Z,15.73
2022-11-24T22:31:12.377Z,16.63
2022-11-24T22:33:40.312Z,16.77
2022-11-24T22:36:09.176Z,15.40
2022-11-24T22:38:37.169Z,16.23
2022-11-24T22:41:07.003Z,15.93
2022-11-24T22:43:38.472Z,15.18
2022-11-24T22:46:07.354Z,15.25
2022-11-24T22:48:35.631Z,16.40
2022-11-24T22:51:04.883Z,14.88
2022-11-24T22:53:32.757Z,16.20
2022-11-24T22:56:05.047Z,17.40
2022-11-24T22:58:33.584Z,12.13
2022-11-24T23:01:07.213Z,15.68
2022-11-24T23:03:35.865Z,16.73
2022-11-24T23:06:04.932Z,16.52
2022-11-24T23:08:34.768Z,16.98
2022-11-24T23:11:04.414Z,16.35
2022-11-24T23:13:32.467Z,16.48
2022-11-24T23:16:04.132Z,16.52
2022-11-24T23:18:33.710Z,16.52
2022-11-24T23:21:06.934Z,16.40
2022-11-24T23:26:03.374Z,16.40
2022-11-24T23:28:31.760Z,18.50
2022-11-24T23:31:03.916Z,19.38
2022-11-24T23:33:33.634Z,18.48
2022-11-24T23:36:03.131Z,17.77
2022-11-24T23:38:32.788Z,18.65
2022-11-24T23:41:01.738Z,19.48
2022-11-24T23:43:29.631Z,16.13
2022-11-24T23:46:03.222Z,16.98
2022-11-24T23:48:31.212Z,17.02
2022-11-24T23:51:04.761Z,16.30
2022-11-24T23:53:32.804Z,16.30
2022-11-24T23:56:00.909Z,17.55
2022-11-24T23:58:29.142Z,16.25
